createdAt,value
2023-05-03T00:00:03.753Z,44.20
2023-05-03T00:00:39.904Z,45.35
2023-05-03T00:01:12.260Z,46.42
2023-05-03T00:01:44.626Z,46.50
2023-05-03T00:02:17.593Z,44.60
2023-05-03T00:02:49.953Z,46.90
2023-05-03T00:03:23.939Z,44.00
2023-05-03T00:03:57.043Z,43.83
2023-05-03T00:04:29.308Z,44.67
2023-05-03T00:05:01.721Z,42.88
2023-05-03T00:05:34.702Z,44.17
2023-05-03T00:06:13.795Z,41.67
2023-05-03T00:06:46.502Z,48.50
2023-05-03T00:07:19.350Z,48.13
2023-05-03T00:07:52.389Z,48.13
2023-05-03T00:08:24.780Z,46.38
2023-05-03T00:08:58.039Z,44.50
2023-05-03T00:09:30.690Z,45.60
2023-05-03T00:10:03.230Z,53.47
2023-05-03T00:10:35.839Z,42.45
2023-05-03T00:11:08.943Z,42.25
2023-05-03T00:11:41.278Z,43.78
2023-05-03T00:12:13.598Z,48.45
2023-05-03T00:12:45.924Z,44.50
2023-05-03T00:13:18.232Z,42.60
2023-05-03T00:13:51.082Z,42.25
2023-05-03T00:14:23.401Z,43.25
2023-05-03T00:14:56.042Z,44.20
2023-05-03T00:15:28.365Z,42.95
2023-05-03T00:16:00.975Z,40.67
2023-05-03T00:16:33.312Z,40.88
2023-05-03T00:17:05.720Z,42.10
2023-05-03T00:17:38.425Z,42.72
2023-05-03T00:18:11.078Z,41.13
2023-05-03T00:18:43.465Z,41.80
2023-05-03T00:19:30.467Z,43.90
2023-05-03T00:20:04.890Z,57.22
2023-05-03T00:20:37.653Z,53.17
2023-05-03T00:21:09.934Z,48.40
2023-05-03T00:21:42.179Z,49.80
2023-05-03T00:22:14.486Z,46.20
2023-05-03T00:22:47.420Z,47.72
2023-05-03T00:23:19.941Z,45.17
2023-05-03T00:23:52.188Z,45.00
2023-05-03T00:24:24.495Z,43.20
2023-05-03T00:24:56.792Z,48.40
2023-05-03T00:25:29.184Z,45.10
2023-05-03T00:26:01.651Z,43.13
2023-05-03T00:26:34.156Z,46.33
2023-05-03T00:27:06.909Z,45.05
2023-05-03T00:27:39.170Z,47.22
2023-05-03T00:28:11.456Z,45.70
2023-05-03T00:28:43.868Z,45.03
2023-05-03T00:29:16.619Z,46.23
2023-05-03T00:29:50.794Z,45.75
2023-05-03T00:30:25.055Z,48.92
2023-05-03T00:30:57.419Z,51.30
2023-05-03T00:31:30.059Z,49.03
2023-05-03T00:32:02.802Z,49.60
2023-05-03T00:32:35.161Z,49.05
2023-05-03T00:33:07.574Z,48.35
2023-05-03T00:33:40.155Z,48.80
2023-05-03T00:34:12.612Z,45.40
2023-05-03T00:34:44.887Z,46.40
2023-05-03T00:35:17.276Z,44.60
2023-05-03T00:35:49.656Z,46.97
2023-05-03T00:36:21.958Z,48.15
2023-05-03T00:36:54.462Z,49.47
2023-05-03T00:37:26.837Z,45.85
2023-05-03T00:37:59.499Z,45.40
2023-05-03T00:38:32.156Z,44.63
2023-05-03T00:39:04.477Z,45.63
2023-05-03T00:39:37.003Z,50.42
2023-05-03T00:40:10.204Z,46.33
2023-05-03T00:40:42.588Z,48.33
2023-05-03T00:41:14.975Z,47.65
2023-05-03T00:41:48.342Z,49.38
2023-05-03T00:42:20.681Z,46.65
2023-05-03T00:42:52.990Z,47.05
2023-05-03T00:43:25.273Z,47.33
2023-05-03T00:43:57.506Z,47.92
2023-05-03T00:44:30.238Z,48.05
2023-05-03T00:45:05.276Z,46.72
2023-05-03T00:45:37.572Z,49.17
2023-05-03T00:46:16.900Z,48.58
2023-05-03T00:46:50.815Z,55.78
2023-05-03T00:47:23.257Z,56.10
2023-05-03T00:47:55.899Z,48.10
2023-05-03T00:48:28.385Z,48.17
2023-05-03T00:49:01.191Z,48.65
2023-05-03T00:49:34.108Z,47.78
2023-05-03T00:50:07.593Z,50.15
2023-05-03T00:50:40.680Z,51.00
2023-05-03T00:51:14.644Z,50.30
2023-05-03T00:51:47.036Z,51.97
2023-05-03T00:52:19.360Z,51.30
2023-05-03T00:52:51.723Z,51.50
2023-05-03T00:53:24.261Z,49.00
2023-05-03T00:53:57.140Z,49.80
2023-05-03T00:54:29.868Z,55.78
2023-05-03T00:55:02.410Z,52.13
2023-05-03T00:55:34.977Z,49.42
2023-05-03T00:56:07.406Z,52.10
2023-05-03T00:56:48.325Z,51.77
2023-05-03T00:57:24.409Z,58.38
2023-05-03T00:57:57.828Z,56.80
2023-05-03T00:58:31.092Z,56.28
2023-05-03T00:59:03.658Z,54.15
2023-05-03T00:59:36.129Z,52.30
2023-05-03T01:00:10.875Z,53.10
2023-05-03T01:00:43.506Z,56.05
2023-05-03T01:01:16.389Z,55.92
2023-05-03T01:01:52.775Z,59.72
2023-05-03T01:02:25.433Z,58.47
2023-05-03T01:02:57.843Z,56.42
2023-05-03T01:03:30.419Z,55.75
2023-05-03T01:04:03.210Z,57.55
2023-05-03T01:04:37.284Z,57.05
2023-05-03T01:05:09.718Z,57.67
2023-05-03T01:05:49.799Z,55.25
2023-05-03T01:06:22.334Z,62.28
2023-05-03T01:06:57.552Z,57.55
2023-05-03T01:07:30.180Z,58.47
2023-05-03T01:08:08.212Z,58.07
2023-05-03T01:09:00.992Z,62.28
2023-05-03T01:09:51.742Z,74.05
2023-05-03T01:10:26.809Z,84.50
2023-05-03T01:11:11.545Z,72.68
2023-05-03T01:11:48.590Z,77.68
2023-05-03T01:12:25.590Z,73.22
2023-05-03T01:13:12.453Z,73.43
2023-05-03T01:13:50.994Z,79.90
2023-05-03T01:14:28.681Z,77.32
2023-05-03T01:15:17.694Z,74.30
2023-05-03T01:16:08.595Z,79.90
2023-05-03T01:16:44.645Z,94.68
2023-05-03T01:17:18.515Z,82.97
2023-05-03T01:17:59.879Z,75.68
2023-05-03T01:18:34.742Z,76.20
2023-05-03T01:19:30.089Z,74.25
2023-05-03T01:20:08.878Z,87.95
2023-05-03T01:20:43.386Z,84.88
2023-05-03T01:21:17.927Z,79.82
2023-05-03T01:21:54.148Z,72.47
2023-05-03T01:22:26.646Z,72.90
2023-05-03T01:22:58.888Z,67.30
2023-05-03T01:23:31.411Z,64.93
2023-05-03T01:24:29.902Z,68.57
2023-05-03T01:25:09.405Z,82.72
2023-05-03T01:25:41.911Z,77.85
2023-05-03T01:26:25.006Z,69.10
2023-05-03T01:26:58.152Z,75.95
2023-05-03T01:27:30.463Z,67.97
2023-05-03T01:28:02.835Z,64.43
2023-05-03T01:28:36.732Z,66.85
2023-05-03T01:29:09.038Z,61.75
2023-05-03T01:29:41.388Z,60.22
2023-05-03T01:30:14.033Z,56.55
2023-05-03T01:30:46.682Z,56.10
2023-05-03T01:31:25.202Z,56.88
2023-05-03T01:31:59.927Z,59.67
2023-05-03T01:32:44.840Z,59.92
2023-05-03T01:33:21.600Z,71.95
2023-05-03T01:34:01.188Z,68.30
2023-05-03T01:34:46.214Z,70.20
2023-05-03T01:35:21.480Z,75.07
2023-05-03T01:35:56.931Z,70.70
2023-05-03T01:36:34.883Z,67.38
2023-05-03T01:37:08.454Z,68.30
2023-05-03T01:37:41.550Z,63.30
2023-05-03T01:38:14.173Z,61.60
2023-05-03T01:38:47.424Z,63.65
2023-05-03T01:39:23.664Z,59.83
2023-05-03T01:40:05.387Z,61.13
2023-05-03T01:40:43.293Z,64.75
2023-05-03T01:41:17.434Z,65.45
2023-05-03T01:41:52.984Z,66.03
2023-05-03T01:42:26.105Z,62.20
2023-05-03T01:42:59.749Z,61.67
2023-05-03T01:43:33.554Z,59.38
2023-05-03T01:44:06.114Z,59.03
2023-05-03T01:44:39.425Z,59.38
2023-05-03T01:45:14.762Z,58.30
2023-05-03T01:45:47.922Z,60.23
2023-05-03T01:46:20.746Z,66.60
2023-05-03T01:46:53.110Z,58.63
2023-05-03T01:47:26.953Z,57.22
2023-05-03T01:47:59.605Z,59.28
2023-05-03T01:48:31.928Z,55.88
2023-05-03T01:49:04.203Z,54.20
2023-05-03T01:49:36.774Z,55.30
2023-05-03T01:50:09.363Z,55.08
2023-05-03T01:50:41.876Z,55.13
2023-05-03T01:51:14.365Z,56.23
2023-05-03T01:51:46.649Z,54.60
2023-05-03T01:52:18.949Z,54.40
2023-05-03T01:52:52.777Z,53.42
2023-05-03T01:53:25.179Z,56.00
2023-05-03T01:53:57.485Z,52.92
2023-05-03T01:54:29.766Z,53.42
2023-05-03T01:55:03.172Z,53.42
2023-05-03T01:55:35.811Z,52.60
2023-05-03T01:56:09.141Z,52.25
2023-05-03T01:56:41.556Z,53.10
2023-05-03T01:57:14.139Z,53.10
2023-05-03T01:57:47.442Z,52.92
2023-05-03T01:58:19.792Z,56.55
2023-05-03T01:58:52.222Z,53.38
2023-05-03T01:59:24.486Z,50.72
2023-05-03T01:59:56.853Z,51.78
2023-05-03T02:00:29.279Z,52.13
2023-05-03T02:01:01.631Z,57.00
2023-05-03T02:01:34.844Z,51.97
2023-05-03T02:02:07.128Z,51.97
2023-05-03T02:02:39.480Z,49.83
2023-05-03T02:03:11.949Z,51.25
2023-05-03T02:03:44.422Z,50.67
2023-05-03T02:04:16.805Z,51.47
2023-05-03T02:04:49.612Z,50.10
2023-05-03T02:05:21.926Z,51.90
2023-05-03T02:05:54.265Z,49.85
2023-05-03T02:06:26.724Z,51.92
2023-05-03T02:06:59.026Z,50.17
2023-05-03T02:07:31.289Z,50.37
2023-05-03T02:08:03.784Z,50.65
2023-05-03T02:08:36.119Z,53.15
2023-05-03T02:09:09.056Z,53.45
2023-05-03T02:09:41.503Z,55.08
2023-05-03T02:10:15.155Z,52.78
2023-05-03T02:10:48.187Z,56.40
2023-05-03T02:11:21.953Z,55.45
2023-05-03T02:11:54.934Z,54.25
2023-05-03T02:12:27.406Z,53.50
2023-05-03T02:13:00.551Z,53.80
2023-05-03T02:13:33.021Z,54.20
2023-05-03T02:14:05.354Z,55.15
2023-05-03T02:14:37.672Z,52.50
2023-05-03T02:15:10.326Z,51.60
2023-05-03T02:15:42.576Z,53.40
2023-05-03T02:16:14.874Z,55.92
2023-05-03T02:16:47.389Z,52.30
2023-05-03T02:17:21.002Z,51.72
2023-05-03T02:17:54.505Z,52.97
2023-05-03T02:18:31.622Z,52.37
2023-05-03T02:19:03.963Z,58.65
2023-05-03T02:19:36.417Z,57.17
2023-05-03T02:20:10.454Z,57.03
2023-05-03T02:20:46.343Z,55.85
2023-05-03T02:21:18.988Z,58.22
2023-05-03T02:21:51.280Z,58.15
2023-05-03T02:22:23.612Z,56.08
2023-05-03T02:22:56.312Z,53.95
2023-05-03T02:23:28.607Z,54.20
2023-05-03T02:24:01.019Z,55.43
2023-05-03T02:24:36.444Z,55.17
2023-05-03T02:25:09.081Z,57.80
2023-05-03T02:25:41.874Z,55.67
2023-05-03T02:26:14.486Z,55.65
2023-05-03T02:26:46.778Z,54.97
2023-05-03T02:27:19.157Z,54.05
2023-05-03T02:27:51.504Z,55.35
2023-05-03T02:28:24.263Z,51.70
2023-05-03T02:28:57.052Z,54.67
2023-05-03T02:29:29.870Z,54.47
2023-05-03T02:30:02.829Z,52.92
2023-05-03T02:30:37.817Z,60.75
2023-05-03T02:31:10.159Z,54.47
2023-05-03T02:31:42.908Z,53.08
2023-05-03T02:32:15.170Z,50.17
2023-05-03T02:32:50.219Z,55.20
2023-05-03T02:33:24.332Z,54.47
2023-05-03T02:33:57.014Z,53.92
2023-05-03T02:34:29.478Z,52.03
2023-05-03T02:35:01.947Z,54.33
2023-05-03T02:35:34.785Z,53.20
2023-05-03T02:36:07.485Z,52.08
2023-05-03T02:36:39.776Z,54.58
2023-05-03T02:37:12.599Z,52.95
2023-05-03T02:37:44.931Z,53.60
2023-05-03T02:38:17.984Z,52.35
2023-05-03T02:38:51.381Z,54.15
2023-05-03T02:39:23.843Z,53.35
2023-05-03T02:39:56.885Z,55.60
2023-05-03T02:40:29.184Z,55.73
2023-05-03T02:41:02.266Z,53.75
2023-05-03T02:41:36.242Z,54.88
2023-05-03T02:42:09.590Z,57.20
2023-05-03T02:42:42.194Z,57.78
2023-05-03T02:43:14.531Z,54.30
2023-05-03T02:43:46.818Z,56.20
2023-05-03T02:44:19.458Z,53.53
2023-05-03T02:44:52.116Z,54.70
2023-05-03T02:45:24.555Z,59.20
2023-05-03T02:45:57.657Z,55.10
2023-05-03T02:46:31.403Z,56.42
2023-05-03T02:47:03.774Z,56.03
2023-05-03T02:47:36.338Z,55.50
2023-05-03T02:48:08.949Z,57.83
2023-05-03T02:48:41.521Z,56.10
2023-05-03T02:49:13.791Z,56.28
2023-05-03T02:49:46.420Z,55.15
2023-05-03T02:50:18.877Z,57.20
2023-05-03T02:50:51.499Z,58.22
2023-05-03T02:51:24.240Z,56.77
2023-05-03T02:51:56.986Z,57.15
2023-05-03T02:52:29.808Z,58.95
2023-05-03T02:53:02.799Z,60.30
2023-05-03T02:53:35.079Z,58.72
2023-05-03T02:54:08.910Z,59.30
2023-05-03T02:54:41.452Z,57.83
2023-05-03T02:55:17.790Z,59.90
2023-05-03T02:55:51.478Z,62.25
2023-05-03T02:56:26.756Z,62.58
2023-05-03T02:56:59.289Z,63.60
2023-05-03T02:57:31.573Z,61.13
2023-05-03T02:58:03.923Z,60.42
2023-05-03T02:58:36.305Z,60.70
2023-05-03T02:59:09.937Z,58.88
2023-05-03T02:59:42.215Z,58.92
2023-05-03T03:00:15.515Z,62.10
2023-05-03T03:00:48.515Z,58.90
2023-05-03T03:01:21.789Z,60.33
2023-05-03T03:01:54.156Z,58.83
2023-05-03T03:02:26.859Z,56.73
2023-05-03T03:02:59.820Z,57.25
2023-05-03T03:03:32.514Z,57.55
2023-05-03T03:04:06.300Z,59.78
2023-05-03T03:04:38.661Z,61.28
2023-05-03T03:05:11.154Z,55.03
2023-05-03T03:05:44.866Z,58.13
2023-05-03T03:06:19.074Z,60.63
2023-05-03T03:06:53.694Z,60.08
2023-05-03T03:07:26.250Z,62.20
2023-05-03T03:08:01.793Z,60.87
2023-05-03T03:08:36.456Z,62.38
2023-05-03T03:09:09.676Z,63.00
2023-05-03T03:09:42.059Z,61.72
2023-05-03T03:10:14.649Z,60.35
2023-05-03T03:10:47.108Z,58.25
2023-05-03T03:11:19.852Z,59.45
2023-05-03T03:11:53.138Z,60.03
2023-05-03T03:12:27.895Z,58.10
2023-05-03T03:13:01.181Z,58.78
2023-05-03T03:13:39.911Z,64.63
2023-05-03T03:14:12.527Z,62.00
2023-05-03T03:14:45.947Z,60.90
2023-05-03T03:15:18.315Z,59.80
2023-05-03T03:15:51.093Z,57.85
2023-05-03T03:16:23.458Z,57.67
2023-05-03T03:16:56.060Z,55.55
2023-05-03T03:17:28.813Z,57.50
2023-05-03T03:18:01.267Z,57.55
2023-05-03T03:18:34.600Z,58.08
2023-05-03T03:19:08.202Z,61.30
2023-05-03T03:19:40.488Z,60.25
2023-05-03T03:20:12.989Z,60.85
2023-05-03T03:20:48.894Z,66.03
2023-05-03T03:21:21.306Z,62.67
2023-05-03T03:21:53.585Z,59.70
2023-05-03T03:22:25.913Z,65.18
2023-05-03T03:22:58.259Z,57.05
2023-05-03T03:23:31.651Z,61.17
2023-05-03T03:24:05.289Z,60.85
2023-05-03T03:24:37.696Z,63.17
2023-05-03T03:25:10.612Z,61.55
2023-05-03T03:25:43.015Z,60.38
2023-05-03T03:26:15.302Z,60.90
2023-05-03T03:26:47.612Z,59.35
2023-05-03T03:27:21.795Z,57.90
2023-05-03T03:27:54.089Z,61.10
2023-05-03T03:28:26.603Z,58.45
2023-05-03T03:29:01.332Z,59.55
2023-05-03T03:29:34.163Z,60.85
2023-05-03T03:30:08.213Z,61.87
2023-05-03T03:30:45.545Z,64.07
2023-05-03T03:31:28.878Z,77.40
2023-05-03T03:32:02.498Z,70.68
2023-05-03T03:32:35.895Z,69.13
2023-05-03T03:33:11.593Z,66.72
2023-05-03T03:33:46.660Z,70.05
2023-05-03T03:34:23.038Z,69.25
2023-05-03T03:34:55.512Z,67.45
2023-05-03T03:35:27.860Z,64.13
2023-05-03T03:36:00.228Z,64.70
2023-05-03T03:36:38.207Z,67.43
2023-05-03T03:37:11.602Z,71.90
2023-05-03T03:37:46.935Z,69.25
2023-05-03T03:38:19.704Z,64.43
2023-05-03T03:38:59.154Z,69.68
2023-05-03T03:39:32.523Z,66.65
2023-05-03T03:40:05.819Z,62.53
2023-05-03T03:40:38.254Z,64.63
2023-05-03T03:41:11.536Z,62.50
2023-05-03T03:41:44.173Z,60.63
2023-05-03T03:42:18.010Z,60.00
2023-05-03T03:42:51.625Z,60.85
2023-05-03T03:43:24.377Z,61.28
2023-05-03T03:43:57.154Z,62.53
2023-05-03T03:44:30.277Z,63.03
2023-05-03T03:45:03.569Z,60.70
2023-05-03T03:45:36.324Z,61.03
2023-05-03T03:46:08.654Z,57.67
2023-05-03T03:46:41.007Z,58.53
2023-05-03T03:47:14.141Z,58.90
2023-05-03T03:47:46.573Z,58.75
2023-05-03T03:48:19.890Z,58.08
2023-05-03T03:48:53.453Z,60.42
2023-05-03T03:49:26.813Z,59.00
2023-05-03T03:50:02.460Z,56.85
2023-05-03T03:50:37.141Z,62.45
2023-05-03T03:51:09.742Z,58.83
2023-05-03T03:51:48.146Z,66.65
2023-05-03T03:52:20.697Z,61.28
2023-05-03T03:52:53.082Z,60.90
2023-05-03T03:53:25.615Z,58.92
2023-05-03T03:53:57.931Z,58.45
2023-05-03T03:54:36.985Z,60.63
2023-05-03T03:55:09.411Z,61.45
2023-05-03T03:55:42.016Z,58.50
2023-05-03T03:56:14.735Z,57.30
2023-05-03T03:56:47.829Z,59.72
2023-05-03T03:57:20.882Z,57.80
2023-05-03T03:57:53.153Z,56.50
2023-05-03T03:58:25.735Z,57.37
2023-05-03T03:58:58.709Z,56.80
2023-05-03T03:59:31.552Z,60.55
2023-05-03T04:00:10.856Z,60.10
2023-05-03T04:00:49.893Z,69.38
2023-05-03T04:01:25.282Z,67.15
2023-05-03T04:01:58.163Z,64.85
2023-05-03T04:02:30.649Z,63.35
2023-05-03T04:03:05.202Z,60.80
2023-05-03T04:03:39.123Z,61.85
2023-05-03T04:04:11.740Z,60.43
2023-05-03T04:04:44.573Z,57.85
2023-05-03T04:05:17.731Z,58.72
2023-05-03T04:05:51.494Z,60.08
2023-05-03T04:06:27.118Z,60.00
2023-05-03T04:07:00.972Z,62.67
2023-05-03T04:07:34.427Z,60.40
2023-05-03T04:08:07.267Z,60.13
2023-05-03T04:08:41.289Z,60.10
2023-05-03T04:09:17.285Z,62.92
2023-05-03T04:09:50.529Z,62.37
2023-05-03T04:10:23.625Z,62.63
2023-05-03T04:10:56.227Z,59.58
2023-05-03T04:11:29.255Z,63.20
2023-05-03T04:12:05.729Z,62.90
2023-05-03T04:12:38.656Z,60.28
2023-05-03T04:13:10.980Z,60.25
2023-05-03T04:13:43.701Z,60.17
2023-05-03T04:14:16.117Z,65.78
2023-05-03T04:14:48.590Z,57.15
2023-05-03T04:15:21.116Z,58.67
2023-05-03T04:15:57.060Z,58.15
2023-05-03T04:16:30.807Z,63.03
2023-05-03T04:17:05.776Z,62.05
2023-05-03T04:17:38.496Z,59.45
2023-05-03T04:18:13.215Z,60.00
2023-05-03T04:18:47.608Z,59.83
2023-05-03T04:19:22.172Z,60.42
2023-05-03T04:19:54.560Z,62.17
2023-05-03T04:20:27.275Z,58.40
2023-05-03T04:21:00.226Z,58.23
2023-05-03T04:21:33.291Z,60.33
2023-05-03T04:22:06.137Z,57.40
2023-05-03T04:22:41.666Z,57.38
2023-05-03T04:23:16.428Z,60.47
2023-05-03T04:23:48.726Z,58.03
2023-05-03T04:24:23.484Z,59.70
2023-05-03T04:24:56.580Z,59.53
2023-05-03T04:25:31.042Z,57.70
2023-05-03T04:26:14.519Z,62.92
2023-05-03T04:26:52.996Z,70.47
2023-05-03T04:27:33.730Z,73.72
2023-05-03T04:28:07.023Z,66.10
2023-05-03T04:28:40.546Z,66.45
2023-05-03T04:29:13.051Z,64.72
2023-05-03T04:29:46.395Z,61.63
2023-05-03T04:30:19.392Z,61.47
2023-05-03T04:30:55.326Z,61.67
2023-05-03T04:31:30.270Z,64.00
2023-05-03T04:32:04.285Z,62.05
2023-05-03T04:32:37.642Z,62.77
2023-05-03T04:33:14.650Z,64.55
2023-05-03T04:33:47.796Z,63.20
2023-05-03T04:34:20.783Z,62.58
2023-05-03T04:34:56.262Z,60.50
2023-05-03T04:35:29.851Z,60.83
2023-05-03T04:36:05.596Z,61.47
2023-05-03T04:36:40.222Z,62.80
2023-05-03T04:37:14.204Z,62.22
2023-05-03T04:37:46.973Z,62.35
2023-05-03T04:38:23.495Z,64.57
2023-05-03T04:38:56.695Z,62.85
2023-05-03T04:39:29.624Z,63.85
2023-05-03T04:40:02.257Z,59.75
2023-05-03T04:40:35.107Z,59.08
2023-05-03T04:41:14.127Z,63.25
2023-05-03T04:41:48.757Z,64.22
2023-05-03T04:42:21.268Z,61.85
2023-05-03T04:42:53.523Z,60.10
2023-05-03T04:43:25.731Z,61.10
2023-05-03T04:43:58.078Z,63.83
2023-05-03T04:44:30.597Z,61.60
2023-05-03T04:45:04.370Z,57.50
2023-05-03T04:45:37.373Z,58.17
2023-05-03T04:46:11.016Z,57.30
2023-05-03T04:46:43.598Z,57.95
2023-05-03T04:47:16.117Z,56.80
2023-05-03T04:47:48.489Z,58.03
2023-05-03T04:48:21.080Z,58.08
2023-05-03T04:48:53.385Z,56.95
2023-05-03T04:49:26.255Z,57.67
2023-05-03T04:49:58.814Z,56.53
2023-05-03T04:50:31.734Z,56.97
2023-05-03T04:51:04.676Z,58.20
2023-05-03T04:51:37.234Z,58.28
2023-05-03T04:52:10.546Z,56.08
2023-05-03T04:52:43.398Z,59.08
2023-05-03T04:53:16.260Z,57.58
2023-05-03T04:53:51.620Z,59.38
2023-05-03T04:54:25.936Z,59.75
2023-05-03T04:54:58.335Z,57.43
2023-05-03T04:55:31.198Z,60.45
2023-05-03T04:56:04.638Z,58.28
2023-05-03T04:56:39.935Z,62.40
2023-05-03T04:57:18.601Z,65.45
2023-05-03T04:57:51.503Z,61.83
2023-05-03T04:58:24.349Z,59.10
2023-05-03T04:58:56.934Z,58.45
2023-05-03T04:59:29.231Z,58.15
2023-05-03T05:00:01.768Z,56.67
2023-05-03T05:00:34.467Z,58.63
2023-05-03T05:01:12.743Z,61.75
2023-05-03T05:01:45.112Z,58.33
2023-05-03T05:02:18.020Z,58.80
2023-05-03T05:02:51.122Z,58.22
2023-05-03T05:03:23.672Z,57.80
2023-05-03T05:03:57.086Z,56.83
2023-05-03T05:04:36.581Z,66.13
2023-05-03T05:05:09.686Z,60.85
2023-05-03T05:05:41.983Z,59.70
2023-05-03T05:06:16.336Z,61.80
2023-05-03T05:06:50.879Z,59.63
2023-05-03T05:07:25.798Z,60.95
2023-05-03T05:07:58.437Z,59.40
2023-05-03T05:08:33.326Z,61.05
2023-05-03T05:09:20.167Z,58.33
2023-05-03T05:09:53.027Z,69.07
2023-05-03T05:10:25.830Z,63.50
2023-05-03T05:11:01.880Z,65.28
2023-05-03T05:11:36.431Z,65.45
2023-05-03T05:12:09.067Z,61.57
2023-05-03T05:12:45.440Z,63.70
2023-05-03T05:13:18.666Z,64.72
2023-05-03T05:13:50.923Z,60.00
2023-05-03T05:14:23.288Z,56.45
2023-05-03T05:14:55.963Z,57.15
2023-05-03T05:15:28.690Z,57.28
2023-05-03T05:16:01.186Z,55.55
2023-05-03T05:16:34.067Z,55.45
2023-05-03T05:17:06.735Z,54.05
2023-05-03T05:17:39.199Z,56.13
2023-05-03T05:18:12.918Z,56.72
2023-05-03T05:18:46.246Z,56.38
2023-05-03T05:19:21.660Z,58.17
2023-05-03T05:19:54.374Z,57.63
2023-05-03T05:20:26.724Z,57.65
2023-05-03T05:20:59.154Z,61.13
2023-05-03T05:21:31.644Z,55.80
2023-05-03T05:22:05.330Z,56.00
2023-05-03T05:22:57.965Z,75.00
2023-05-03T05:23:30.597Z,68.97
2023-05-03T05:24:02.919Z,65.20
2023-05-03T05:24:35.227Z,65.85
2023-05-03T05:25:08.146Z,61.63
2023-05-03T05:25:40.572Z,59.40
2023-05-03T05:26:13.551Z,60.97
2023-05-03T05:26:46.406Z,61.60
2023-05-03T05:27:20.624Z,61.17
2023-05-03T05:27:53.539Z,59.70
2023-05-03T05:28:26.615Z,59.97
2023-05-03T05:28:59.510Z,60.70
2023-05-03T05:29:31.875Z,57.85
2023-05-03T05:30:04.873Z,57.70
2023-05-03T05:30:38.055Z,61.70
2023-05-03T05:31:10.886Z,57.40
2023-05-03T05:31:43.447Z,59.03
2023-05-03T05:32:16.193Z,58.10
2023-05-03T05:32:48.627Z,58.72
2023-05-03T05:33:21.395Z,57.75
2023-05-03T05:33:54.974Z,59.30
2023-05-03T05:34:28.134Z,58.53
2023-05-03T05:35:01.268Z,56.28
2023-05-03T05:35:34.388Z,61.10
2023-05-03T05:36:06.848Z,56.90
2023-05-03T05:36:40.036Z,56.63
2023-05-03T05:37:13.543Z,58.05
2023-05-03T05:37:45.999Z,57.90
2023-05-03T05:38:19.253Z,58.08
2023-05-03T05:38:52.446Z,56.60
2023-05-03T05:39:24.826Z,56.13
2023-05-03T05:39:57.510Z,57.20
2023-05-03T05:40:32.812Z,56.10
2023-05-03T05:41:06.567Z,57.90
2023-05-03T05:41:39.520Z,57.88
2023-05-03T05:42:12.040Z,57.20
2023-05-03T05:42:46.420Z,56.40
2023-05-03T05:43:18.856Z,57.80
2023-05-03T05:43:52.212Z,58.13
2023-05-03T05:44:25.389Z,58.05
2023-05-03T05:44:58.096Z,58.35
2023-05-03T05:45:31.054Z,57.07
2023-05-03T05:46:04.467Z,57.50
2023-05-03T05:46:37.190Z,54.25
2023-05-03T05:47:10.331Z,55.65
2023-05-03T05:47:43.069Z,57.67
2023-05-03T05:48:15.860Z,55.28
2023-05-03T05:48:51.420Z,55.47
2023-05-03T05:49:24.395Z,57.42
2023-05-03T05:49:56.750Z,55.28
2023-05-03T05:50:29.386Z,61.15
2023-05-03T05:51:06.362Z,57.93
2023-05-03T05:51:39.993Z,55.63
2023-05-03T05:52:12.325Z,55.90
2023-05-03T05:52:45.117Z,56.83
2023-05-03T05:53:19.202Z,56.78
2023-05-03T05:53:58.791Z,62.30
2023-05-03T05:54:31.225Z,61.40
2023-05-03T05:55:05.048Z,58.55
2023-05-03T05:55:37.676Z,58.65
2023-05-03T05:56:11.496Z,58.90
2023-05-03T05:56:43.845Z,57.77
2023-05-03T05:57:17.238Z,53.38
2023-05-03T05:57:49.666Z,61.05
2023-05-03T05:58:24.686Z,56.47
2023-05-03T05:59:01.122Z,59.90
2023-05-03T05:59:33.778Z,58.10
2023-05-03T06:00:14.877Z,56.20
2023-05-03T06:00:51.367Z,67.38
2023-05-03T06:01:24.084Z,66.75
2023-05-03T06:01:57.792Z,61.55
2023-05-03T06:02:30.318Z,61.20
2023-05-03T06:03:03.294Z,59.15
2023-05-03T06:03:35.885Z,60.42
2023-05-03T06:04:10.896Z,62.50
2023-05-03T06:04:44.107Z,61.50
2023-05-03T06:05:17.192Z,66.57
2023-05-03T06:05:49.719Z,59.97
2023-05-03T06:06:22.035Z,59.90
2023-05-03T06:06:54.620Z,55.92
2023-05-03T06:07:27.118Z,53.63
2023-05-03T06:08:00.157Z,59.43
2023-05-03T06:08:32.971Z,54.78
2023-05-03T06:09:16.782Z,53.40
2023-05-03T06:09:57.841Z,73.13
2023-05-03T06:10:30.166Z,63.22
2023-05-03T06:11:03.051Z,60.78
2023-05-03T06:11:36.362Z,60.22
2023-05-03T06:12:08.838Z,59.55
2023-05-03T06:12:43.286Z,65.63
2023-05-03T06:13:20.363Z,60.17
2023-05-03T06:13:53.509Z,60.67
2023-05-03T06:14:26.140Z,56.03
2023-05-03T06:15:02.700Z,54.58
2023-05-03T06:15:41.409Z,65.20
2023-05-03T06:16:13.809Z,59.25
2023-05-03T06:16:46.588Z,58.88
2023-05-03T06:17:18.927Z,56.28
2023-05-03T06:17:51.825Z,55.17
2023-05-03T06:18:24.644Z,54.08
2023-05-03T06:18:56.926Z,55.50
2023-05-03T06:19:29.295Z,56.43
2023-05-03T06:20:02.234Z,59.00
2023-05-03T06:20:34.747Z,54.78
2023-05-03T06:21:07.678Z,55.53
2023-05-03T06:21:40.112Z,55.67
2023-05-03T06:22:12.568Z,53.35
2023-05-03T06:22:45.017Z,54.22
2023-05-03T06:23:18.453Z,54.47
2023-05-03T06:23:51.042Z,54.05
2023-05-03T06:24:23.361Z,53.83
2023-05-03T06:24:58.532Z,56.50
2023-05-03T06:25:31.575Z,55.75
2023-05-03T06:26:03.986Z,56.92
2023-05-03T06:26:36.333Z,53.72
2023-05-03T06:27:08.925Z,50.60
2023-05-03T06:27:41.735Z,54.60
2023-05-03T06:28:13.945Z,50.10
2023-05-03T06:28:47.736Z,50.42
2023-05-03T06:29:20.283Z,52.78
2023-05-03T06:29:53.131Z,51.63
2023-05-03T06:30:26.029Z,50.67
2023-05-03T06:30:58.870Z,51.60
2023-05-03T06:31:33.090Z,53.58
2023-05-03T06:32:05.569Z,54.50
2023-05-03T06:32:41.663Z,54.08
2023-05-03T06:33:15.007Z,57.28
2023-05-03T06:33:49.107Z,53.80
2023-05-03T06:34:22.017Z,56.15
2023-05-03T06:34:56.778Z,62.33
2023-05-03T06:35:29.659Z,54.25
2023-05-03T06:36:01.991Z,52.00
2023-05-03T06:36:34.475Z,51.00
2023-05-03T06:37:06.941Z,50.90
2023-05-03T06:37:39.440Z,53.35
2023-05-03T06:38:12.324Z,53.30
2023-05-03T06:38:45.034Z,48.78
2023-05-03T06:39:18.247Z,54.50
2023-05-03T06:39:51.253Z,51.90
2023-05-03T06:40:26.148Z,54.45
2023-05-03T06:40:58.491Z,54.13
2023-05-03T06:41:31.592Z,51.33
2023-05-03T06:42:04.367Z,51.47
2023-05-03T06:42:41.685Z,56.97
2023-05-03T06:43:21.520Z,58.55
2023-05-03T06:44:07.597Z,68.95
2023-05-03T06:44:39.921Z,61.95
2023-05-03T06:45:12.205Z,58.38
2023-05-03T06:45:44.549Z,55.75
2023-05-03T06:46:19.539Z,56.20
2023-05-03T06:46:52.864Z,55.53
2023-05-03T06:47:25.918Z,54.00
2023-05-03T06:47:58.371Z,52.60
2023-05-03T06:48:30.867Z,52.05
2023-05-03T06:49:04.197Z,52.60
2023-05-03T06:49:36.781Z,53.38
2023-05-03T06:50:09.342Z,46.88
2023-05-03T06:50:41.625Z,49.30
2023-05-03T06:51:15.221Z,47.30
2023-05-03T06:51:47.536Z,47.50
2023-05-03T06:52:20.030Z,45.17
2023-05-03T06:52:52.351Z,49.33
2023-05-03T06:53:24.776Z,47.58
2023-05-03T06:53:57.857Z,45.72
2023-05-03T06:54:30.172Z,47.58
2023-05-03T06:55:02.645Z,45.47
2023-05-03T06:55:35.219Z,44.92
2023-05-03T06:56:07.760Z,46.58
2023-05-03T06:56:40.055Z,47.15
2023-05-03T06:57:12.571Z,52.70
2023-05-03T06:57:44.889Z,45.53
2023-05-03T06:58:17.290Z,44.47
2023-05-03T06:58:49.818Z,44.03
2023-05-03T06:59:22.080Z,43.95
2023-05-03T06:59:54.325Z,45.28
2023-05-03T07:00:26.909Z,46.83
2023-05-03T07:00:59.293Z,45.42
2023-05-03T07:01:32.279Z,44.20
2023-05-03T07:02:04.695Z,44.50
2023-05-03T07:02:37.781Z,46.60
2023-05-03T07:03:10.421Z,47.50
2023-05-03T07:03:42.924Z,48.37
2023-05-03T07:04:15.806Z,45.85
2023-05-03T07:04:48.394Z,47.78
2023-05-03T07:05:21.098Z,46.17
2023-05-03T07:05:53.502Z,47.13
2023-05-03T07:06:25.979Z,45.85
2023-05-03T07:06:58.436Z,45.67
2023-05-03T07:07:31.472Z,46.83
2023-05-03T07:08:03.884Z,45.85
2023-05-03T07:08:36.583Z,47.42
2023-05-03T07:09:08.838Z,48.57
2023-05-03T07:09:43.652Z,43.97
2023-05-03T07:10:16.448Z,48.28
2023-05-03T07:10:48.717Z,48.42
2023-05-03T07:11:24.182Z,49.17
2023-05-03T07:11:56.451Z,55.80
2023-05-03T07:12:29.199Z,46.72
2023-05-03T07:13:01.495Z,47.00
2023-05-03T07:13:33.847Z,44.22
2023-05-03T07:14:06.245Z,45.28